Time;durP1;ratioP1;P1;durP2;ratioP2;P2;SDS_P1;SDS_P2;PMS_P1;PMS_P2;Temp;Humidity;BMP_temperature;BMP_pressure;BME280_temperature;BME280_humidity;BME280_pressure;Samples;Min_cycle;Max_cycle;Signal;HPM_P1;HPM_P2
2022/12/23 00:00:25;;;;;;;21.35;11.55;;;;;;;9.32;100.00;99324.34;5079044;28;20048;-72
2022/12/23 00:02:52;;;;;;;17.98;10.73;;;;;;;9.33;100.00;99315.47;5083586;27;20430;-72
2022/12/23 00:05:18;;;;;;;16.73;10.65;;;;;;;9.32;100.00;99309.34;5082668;28;20056;-73
2022/12/23 00:07:45;;;;;;;19.00;9.85;;;;;;;9.33;100.00;99316.34;5080613;28;20047;-72
2022/12/23 00:10:12;;;;;;;16.85;10.13;;;;;;;9.33;100.00;99323.41;5081080;28;20044;-72
2022/12/23 00:15:25;;;;;;;19.40;10.07;;;;;;;9.32;100.00;99321.69;5071124;28;20047;-74
2022/12/23 00:17:51;;;;;;;16.80;9.35;;;;;;;9.33;100.00;99326.91;5085259;28;20044;-72
2022/12/23 00:20:18;;;;;;;21.50;8.90;;;;;;;9.32;100.00;99322.56;5090294;28;20833;-74
2022/12/23 00:25:43;;;;;;;14.40;8.07;;;;;;;9.29;100.00;99312.16;5073508;28;20047;-73
2022/12/23 00:28:13;;;;;;;14.50;8.17;;;;;;;9.32;100.00;99316.41;5086942;28;20048;-72
2022/12/23 00:30:54;;;;;;;13.75;7.82;;;;;;;9.24;100.00;99293.13;5089261;28;20079;-73
2022/12/23 00:33:33;;;;;;;15.20;8.05;;;;;;;9.13;100.00;99272.59;5084443;28;20487;-73
2022/12/23 00:36:00;;;;;;;13.75;7.03;;;;;;;9.28;100.00;99292.00;5081153;28;20403;-72
2022/12/23 00:44:02;;;;;;;11.73;7.15;;;;;;;9.20;100.00;99275.72;5097863;28;20040;-72
2022/12/23 00:46:28;;;;;;;11.07;6.03;;;;;;;9.32;100.00;99301.41;5088182;28;20044;-73
2022/12/23 00:51:40;;;;;;;11.52;6.18;;;;;;;9.25;100.00;99288.69;5085049;28;20044;-71
2022/12/23 00:54:07;;;;;;;7.35;5.22;;;;;;;9.26;100.00;99296.53;5080526;28;20048;-72
2022/12/23 00:56:33;;;;;;;7.15;5.00;;;;;;;9.33;100.00;99295.19;5092622;28;20050;-71
2022/12/23 00:59:00;;;;;;;9.60;4.82;;;;;;;9.14;100.00;99269.00;5085721;28;20561;-70
2022/12/23 01:07:06;;;;;;;7.38;4.07;;;;;;;9.27;100.00;99298.22;5076596;28;20119;-71
2022/12/23 01:09:33;;;;;;;7.93;4.03;;;;;;;9.32;100.00;99309.34;5084107;28;20058;-71
2022/12/23 01:12:00;;;;;;;6.25;3.65;;;;;;;9.24;100.00;99298.41;5085320;28;20043;-72
2022/12/23 01:14:27;;;;;;;5.60;3.33;;;;;;;9.14;100.00;99284.00;5084945;28;20052;-72
2022/12/23 01:16:54;;;;;;;6.00;3.42;;;;;;;9.30;100.00;99302.44;5083408;28;20051;-73
2022/12/23 01:19:21;;;;;;;6.00;3.13;;;;;;;9.32;100.00;99305.84;5083020;28;20123;-73
2022/12/23 01:21:47;;;;;;;4.80;2.72;;;;;;;9.18;100.00;99277.63;5080667;28;20082;-73
2022/12/23 01:24:14;;;;;;;3.92;2.70;;;;;;;9.30;100.00;99305.94;5076267;28;20385;-73
2022/12/23 01:26:40;;;;;;;4.28;2.47;;;;;;;9.29;100.00;99321.88;5082305;28;20514;-72
2022/12/23 01:29:07;;;;;;;4.50;2.33;;;;;;;9.21;100.00;99324.13;5086448;28;20059;-72
2022/12/23 01:31:35;;;;;;;3.95;2.38;;;;;;;9.20;100.00;99343.56;5082999;28;20353;-72
2022/12/23 01:34:02;;;;;;;4.18;1.90;;;;;;;9.03;100.00;99318.97;5085861;28;20044;-73
2022/12/23 01:36:28;;;;;;;3.50;1.90;;;;;;;8.97;100.00;99321.94;5082335;28;20072;-74
2022/12/23 01:38:55;;;;;;;2.85;1.80;;;;;;;9.11;100.00;99344.97;5082129;28;20056;-74
2022/12/23 01:44:47;;;;;;;2.38;1.80;;;;;;;9.20;100.00;99367.34;5082845;28;20051;-72
2022/12/23 01:47:21;;;;;;;2.63;1.90;;;;;;;9.08;100.00;99339.84;5078390;28;20393;-73
2022/12/23 01:49:49;;;;;;;3.55;2.20;;;;;;;9.21;100.00;99364.59;5083435;28;20139;-73
2022/12/23 01:52:16;;;;;;;5.45;2.90;;;;;;;9.04;100.00;99335.66;5077402;28;20098;-73
2022/12/23 01:54:43;;;;;;;5.88;3.00;;;;;;;9.25;100.00;99373.22;5083758;28;20058;-72
2022/12/23 01:57:10;;;;;;;4.10;2.50;;;;;;;9.21;100.00;99380.44;5084050;28;20047;-71
2022/12/23 02:05:08;;;;;;;5.57;2.78;;;;;;;9.18;100.00;99380.63;5083791;28;20393;-72
2022/12/23 02:10:27;;;;;;;6.07;3.10;;;;;;;9.13;100.00;99367.66;5079866;28;20052;-73
2022/12/23 02:13:08;;;;;;;4.00;3.10;;;;;;;9.19;100.00;99377.03;5078669;28;20060;-72
2022/12/23 02:18:53;;;;;;;4.93;3.22;;;;;;;9.19;100.00;99386.75;5080313;28;20047;-73
2022/12/23 02:22:01;;;;;;;3.58;2.97;;;;;;;9.22;100.00;99395.38;5085593;28;20050;-72
2022/12/23 02:24:56;;;;;;;4.35;3.08;;;;;;;9.21;100.00;99398.94;5078753;28;20119;-72
2022/12/23 02:27:48;;;;;;;6.57;3.50;;;;;;;9.17;100.00;99405.34;5082482;28;20082;-72
2022/12/23 02:30:28;;;;;;;5.53;3.75;;;;;;;9.14;100.00;99422.19;5090722;28;20488;-73
2022/12/23 02:33:07;;;;;;;5.53;3.90;;;;;;;9.14;100.00;99426.63;5084664;28;20445;-72
2022/12/23 02:35:43;;;;;;;6.28;4.10;;;;;;;9.10;100.00;99414.56;5079556;28;20138;-75
2022/12/23 02:38:42;;;;;;;5.75;4.00;;;;;;;9.09;100.00;99420.78;5081371;28;20828;-73
2022/12/23 02:41:27;;;;;;;8.80;4.57;;;;;;;9.06;100.00;99423.59;5081202;28;20119;-72
2022/12/23 02:44:03;;;;;;;6.32;4.60;;;;;;;8.94;100.00;99408.44;5081381;28;20388;-73
2022/12/23 02:46:35;;;;;;;5.28;4.20;;;;;;;9.07;100.00;99431.44;5082444;28;20052;-72
2022/12/23 02:49:09;;;;;;;6.80;4.80;;;;;;;9.06;100.00;99434.16;5079717;28;20105;-71
2022/12/23 02:51:41;;;;;;;8.10;5.18;;;;;;;9.06;100.00;99434.16;5087807;28;20119;-73
2022/12/23 02:54:11;;;;;;;8.50;6.03;;;;;;;9.02;100.00;99437.88;5085210;28;20044;-72
2022/12/23 02:56:44;;;;;;;9.52;5.97;;;;;;;9.04;100.00;99433.38;5074987;28;20058;-73
2022/12/23 02:59:19;;;;;;;11.90;6.78;;;;;;;9.06;100.00;99434.16;5082109;28;20045;-72
2022/12/23 03:01:46;;;;;;;9.68;6.78;;;;;;;9.06;100.00;99431.50;5076332;28;20053;-72
2022/12/23 03:04:13;;;;;;;10.15;6.50;;;;;;;9.06;100.00;99426.22;5084643;28;20417;-73
2022/12/23 03:06:43;;;;;;;10.05;6.60;;;;;;;9.11;100.00;99426.81;5083705;28;20131;-73
2022/12/23 03:09:16;;;;;;;9.27;5.93;;;;;;;9.09;100.00;99424.28;5087538;28;20048;-71
2022/12/23 03:12:02;;;;;;;9.23;6.03;;;;;;;9.07;100.00;99414.72;5081777;28;20408;-71
2022/12/23 03:15:16;;;;;;;8.70;5.88;;;;;;;9.07;100.00;99425.28;5083851;28;20050;-73
2022/12/23 03:17:52;;;;;;;10.05;6.00;;;;;;;9.00;100.00;99431.84;5082280;28;20129;-74
2022/12/23 03:20:40;;;;;;;11.63;6.97;;;;;;;8.95;100.00;99442.69;5084126;28;20052;-71
2022/12/23 03:23:29;;;;;;;13.90;7.35;;;;;;;8.89;100.00;99440.38;5089742;28;20064;-72
2022/12/23 03:26:10;;;;;;;13.07;8.10;;;;;;;8.90;100.00;99442.06;5086342;28;20056;-71
2022/12/23 03:28:50;;;;;;;14.80;7.80;;;;;;;8.92;100.00;99449.91;5083466;28;20066;-73
2022/12/23 03:31:22;;;;;;;15.50;8.90;;;;;;;8.89;100.00;99442.16;5086464;28;20067;-72
2022/12/23 03:33:57;;;;;;;17.00;8.82;;;;;;;8.92;100.00;99450.75;5084998;28;20040;-72
2022/12/23 03:36:46;;;;;;;17.00;10.05;;;;;;;8.87;100.00;99446.66;5085851;28;20143;-73
2022/12/23 03:39:16;;;;;;;22.30;10.95;;;;;;;8.88;100.00;99441.28;5081499;28;20500;-72
2022/12/23 03:41:50;;;;;;;22.40;11.27;;;;;;;8.70;100.00;99422.03;5082169;28;20078;-72
2022/12/23 03:44:23;;;;;;;22.67;11.93;;;;;;;8.87;100.00;99449.28;5079745;28;20452;-71
2022/12/23 03:47:08;;;;;;;23.52;11.40;;;;;;;8.88;100.00;99466.84;5078459;28;20080;-70
2022/12/23 03:49:40;;;;;;;20.65;11.90;;;;;;;8.84;100.00;99460.88;5077255;28;20044;-70
2022/12/23 03:52:14;;;;;;;24.88;12.20;;;;;;;8.88;100.00;99472.13;5082357;28;20410;-71
2022/12/23 03:54:54;;;;;;;22.00;12.18;;;;;;;8.86;100.00;99481.91;5083191;28;20040;-71
2022/12/23 03:57:44;;;;;;;23.88;12.82;;;;;;;8.86;100.00;99489.84;5079868;28;20131;-72
2022/12/23 04:00:11;;;;;;;24.97;13.43;;;;;;;8.81;100.00;99486.63;5083895;28;20920;-71
2022/12/23 04:02:56;;;;;;;29.15;14.05;;;;;;;8.77;100.00;99485.91;5093051;28;20044;-72
2022/12/23 04:05:32;;;;;;;25.90;13.75;;;;;;;8.81;100.00;99486.63;5078507;28;20074;-72
2022/12/23 04:08:29;;;;;;;27.90;14.18;;;;;;;8.75;100.00;99479.88;5072770;28;20078;-72
2022/12/23 04:10:57;;;;;;;25.63;13.02;;;;;;;8.78;100.00;99496.41;5085378;28;20142;-71
2022/12/23 04:13:25;;;;;;;26.48;13.80;;;;;;;8.79;100.00;99506.03;5087997;28;20146;-73
2022/12/23 04:15:52;;;;;;;29.55;13.50;;;;;;;8.78;100.00;99509.59;5084302;28;20044;-71
2022/12/23 04:18:19;;;;;;;27.13;13.60;;;;;;;8.76;100.00;99498.25;5090734;28;20426;-73
2022/12/23 04:20:45;;;;;;;28.67;13.40;;;;;;;8.78;100.00;99500.81;5084000;28;20040;-72
2022/12/23 04:23:12;;;;;;;24.33;13.35;;;;;;;8.86;100.00;99505.66;5082056;28;20464;-71
2022/12/23 04:25:39;;;;;;;26.05;12.63;;;;;;;8.89;100.00;99505.50;5087806;28;20074;-71
2022/12/23 04:28:05;;;;;;;25.60;13.02;;;;;;;8.88;100.00;99501.16;5085706;28;20046;-71
2022/12/23 04:30:32;;;;;;;23.63;12.55;;;;;;;8.84;100.00;99499.63;5090366;28;20054;-73
2022/12/23 04:33:01;;;;;;;23.73;12.50;;;;;;;8.80;100.00;99496.31;5084571;28;20126;-71
2022/12/23 04:35:27;;;;;;;21.98;12.80;;;;;;;8.75;100.00;99509.75;5082503;28;20397;-72
2022/12/23 04:37:54;;;;;;;23.60;12.88;;;;;;;8.54;100.00;99471.31;5079396;28;20057;-70
2022/12/23 04:40:20;;;;;;;26.60;13.63;;;;;;;8.65;100.00;99497.13;5092570;28;20097;-71
2022/12/23 04:42:47;;;;;;;26.10;13.95;;;;;;;8.65;100.00;99508.56;5082961;28;20082;-71
2022/12/23 04:45:14;;;;;;;35.60;15.52;;;;;;;8.62;100.00;99498.16;5088531;28;20048;-72
2022/12/23 04:47:40;;;;;;;27.77;13.80;;;;;;;8.57;100.00;99499.31;5085480;28;20052;-71
2022/12/23 04:50:12;;;;;;;23.55;12.68;;;;;;;8.55;100.00;99517.88;5085054;28;20436;-73
2022/12/23 04:52:38;;;;;;;24.17;12.98;;;;;;;8.51;100.00;99524.22;5090833;28;20051;-71
2022/12/23 04:55:05;;;;;;;23.65;12.30;;;;;;;8.34;100.00;99492.63;5081681;28;20060;-72
2022/12/23 04:57:34;;;;;;;27.55;13.20;;;;;;;8.46;100.00;99526.28;5083116;28;20041;-70
2022/12/23 05:00:01;;;;;;;27.52;12.82;;;;;;;8.47;100.00;99525.34;5088299;28;20428;-72
2022/12/23 05:02:29;;;;;;;25.85;12.90;;;;;;;8.30;100.00;99491.03;5085235;28;20044;-72
2022/12/23 05:04:56;;;;;;;26.73;12.65;;;;;;;8.45;100.00;99519.28;5082699;28;20115;-73
2022/12/23 05:07:22;;;;;;;21.05;11.88;;;;;;;8.53;100.00;99526.78;5084945;28;20043;-70
2022/12/23 05:09:49;;;;;;;22.13;10.65;;;;;;;8.53;100.00;99530.28;5083852;28;20114;-73
2022/12/23 05:12:16;;;;;;;19.10;10.43;;;;;;;8.53;100.00;99538.19;5083373;28;20044;-73
2022/12/23 05:14:42;;;;;;;19.40;9.40;;;;;;;8.48;100.00;99505.94;5094933;28;20044;-73
2022/12/23 05:17:09;;;;;;;20.00;9.95;;;;;;;8.53;100.00;99511.81;5081833;28;20044;-70
2022/12/23 05:19:35;;;;;;;16.27;9.50;;;;;;;8.50;100.00;99505.88;5085921;28;20678;-70
2022/12/23 05:22:02;;;;;;;15.48;9.25;;;;;;;8.54;100.00;99520.59;5084451;28;20044;-71
2022/12/23 05:24:28;;;;;;;16.55;10.38;;;;;;;8.43;100.00;99513.25;5087557;28;20046;-72
2022/12/23 05:26:55;;;;;;;17.25;9.20;;;;;;;8.49;100.00;99528.75;5081114;28;20083;-74
2022/12/23 05:29:26;;;;;;;14.05;9.10;;;;;;;8.51;100.00;99536.56;5085888;28;20055;-71
2022/12/23 05:31:52;;;;;;;14.35;8.90;;;;;;;8.42;100.00;99522.09;5087334;28;20052;-73
2022/12/23 05:34:19;;;;;;;15.32;9.27;;;;;;;8.43;100.00;99531.72;5090591;28;20456;-71
2022/12/23 05:36:46;;;;;;;16.10;8.73;;;;;;;8.37;100.00;99532.00;5092459;28;20132;-71
2022/12/23 05:39:12;;;;;;;17.55;9.45;;;;;;;8.34;100.00;99532.19;5088172;28;20057;-72
2022/12/23 05:41:39;;;;;;;16.63;9.45;;;;;;;8.40;100.00;99526.59;5085371;28;20106;-74
2022/12/23 05:44:06;;;;;;;12.57;7.68;;;;;;;8.40;100.00;99535.34;5082912;28;20699;-71
2022/12/23 05:46:32;;;;;;;13.63;8.98;;;;;;;8.44;100.00;99544.81;5083165;28;20097;-71
2022/12/23 05:48:59;;;;;;;15.95;8.70;;;;;;;8.44;100.00;99552.75;5088350;28;20060;-74
2022/12/23 05:51:26;;;;;;;16.65;9.02;;;;;;;8.22;100.00;99504.59;5076343;28;20044;-71
2022/12/23 05:53:52;;;;;;;14.77;8.38;;;;;;;8.43;100.00;99539.63;5084585;28;20087;-70
2022/12/23 05:56:19;;;;;;;14.18;7.97;;;;;;;8.50;100.00;99537.53;5087054;28;20411;-71
2022/12/23 05:58:45;;;;;;;12.40;6.88;;;;;;;8.36;100.00;99511.84;5080981;28;20124;-72
2022/12/23 06:01:13;;;;;;;11.43;7.10;;;;;;;8.41;100.00;99520.38;5082615;28;20040;-70
2022/12/23 06:03:39;;;;;;;12.35;7.30;;;;;;;8.56;100.00;99543.31;5082086;28;20090;-70
2022/12/23 06:06:07;;;;;;;13.23;6.47;;;;;;;8.55;100.00;99546.03;5085087;28;20073;-70
2022/12/23 06:08:33;;;;;;;11.05;6.30;;;;;;;8.48;100.00;99550.81;5083048;28;20047;-70
2022/12/23 06:11:03;;;;;;;9.65;5.95;;;;;;;8.31;100.00;99545.50;5077145;28;20052;-70
2022/12/23 06:13:30;;;;;;;10.23;6.50;;;;;;;8.08;100.00;99523.78;5080864;28;20117;-75
2022/12/23 06:15:57;;;;;;;10.65;6.45;;;;;;;8.16;100.00;99555.03;5084688;28;20399;-75
2022/12/23 06:18:24;;;;;;;11.60;6.78;;;;;;;8.15;100.00;99552.47;5083545;28;20040;-74
2022/12/23 06:20:51;;;;;;;12.43;6.65;;;;;;;8.13;100.00;99549.06;5087190;28;20442;-72
2022/12/23 06:23:17;;;;;;;10.00;6.47;;;;;;;8.10;100.00;99550.94;5089160;28;20144;-71
2022/12/23 06:25:44;;;;;;;9.27;6.32;;;;;;;8.05;100.00;99545.03;5086087;28;20051;-74
2022/12/23 06:28:10;;;;;;;10.68;5.75;;;;;;;7.89;100.00;99528.25;5075731;27;20087;-70
2022/12/23 06:30:37;;;;;;;9.38;5.88;;;;;;;7.99;100.00;99569.06;5092833;28;20083;-70
2022/12/23 06:33:03;;;;;;;10.38;6.35;;;;;;;7.92;100.00;99561.53;5087364;28;20370;-70
2022/12/23 06:35:30;;;;;;;10.73;6.55;;;;;;;7.90;100.00;99564.22;5089256;28;20533;-71
2022/12/23 06:37:56;;;;;;;14.50;6.80;;;;;;;7.82;100.00;99561.13;5088508;28;20044;-71
2022/12/23 06:40:23;;;;;;;13.00;6.82;;;;;;;7.63;100.00;99534.81;5090650;28;20050;-74
2022/12/23 06:42:50;;;;;;;12.95;6.75;;;;;;;7.66;100.00;99549.63;5081537;28;20052;-71
2022/12/23 06:45:16;;;;;;;12.98;7.35;;;;;;;7.80;100.00;99557.72;5088845;28;20075;-74
2022/12/23 06:47:43;;;;;;;11.48;7.03;;;;;;;7.83;100.00;99560.22;5083737;28;20419;-72
2022/12/23 06:50:10;;;;;;;10.32;6.20;;;;;;;7.97;100.00;99573.56;5083025;28;20105;-73
2022/12/23 06:52:36;;;;;;;10.35;6.63;;;;;;;7.99;100.00;99582.25;5086883;28;20128;-71
2022/12/23 06:55:03;;;;;;;12.23;6.30;;;;;;;7.98;100.00;99574.41;5085157;28;20054;-72
2022/12/23 06:57:30;;;;;;;11.52;6.68;;;;;;;7.97;100.00;99584.09;5087013;28;20055;-73
2022/12/23 06:59:56;;;;;;;12.32;6.57;;;;;;;7.85;100.00;99563.63;5088172;28;20044;-70
2022/12/23 07:02:23;;;;;;;8.95;5.88;;;;;;;7.95;100.00;99579.84;5087329;28;20077;-74
2022/12/23 07:04:50;;;;;;;10.57;5.88;;;;;;;8.02;100.00;99586.53;5089320;28;20047;-78
2022/12/23 07:07:16;;;;;;;10.25;5.68;;;;;;;8.08;100.00;99594.97;5083811;28;20040;-72
2022/12/23 07:09:43;;;;;;;8.40;5.22;;;;;;;8.08;100.00;99587.06;5079793;28;20048;-72
2022/12/23 07:12:09;;;;;;;9.45;5.20;;;;;;;8.11;100.00;99580.78;5078529;28;20136;-71
2022/12/23 07:14:36;;;;;;;8.80;5.15;;;;;;;8.10;100.00;99577.28;5088762;28;20036;-70
2022/12/23 07:17:02;;;;;;;10.02;4.82;;;;;;;8.12;100.00;99568.44;5075094;28;20047;-70
2022/12/23 07:19:29;;;;;;;8.27;5.18;;;;;;;8.06;100.00;99562.53;5082011;28;20080;-71
2022/12/23 07:21:56;;;;;;;8.15;5.32;;;;;;;8.07;100.00;99564.25;5078088;28;20044;-72
2022/12/23 07:24:22;;;;;;;15.85;7.03;;;;;;;8.02;100.00;99555.75;5081871;28;20504;-70
2022/12/23 07:26:54;;;;;;;9.82;5.82;;;;;;;8.09;100.00;99575.59;5081835;28;20134;-70
2022/12/23 07:29:21;;;;;;;9.88;5.53;;;;;;;8.10;100.00;99576.44;5078445;28;20057;-73
2022/12/23 07:31:48;;;;;;;7.78;6.10;;;;;;;8.06;100.00;99581.00;5085817;28;20044;-74
2022/12/23 07:34:14;;;;;;;9.35;6.15;;;;;;;8.08;100.00;99587.06;5074101;28;20372;-72
2022/12/23 07:36:41;;;;;;;12.05;6.45;;;;;;;8.07;100.00;99595.91;5071252;28;20080;-70
2022/12/23 07:39:08;;;;;;;14.65;8.38;;;;;;;8.06;100.00;99593.34;5070679;28;20132;-72
2022/12/23 07:41:34;;;;;;;14.02;7.45;;;;;;;8.07;100.00;99589.78;5073204;28;20051;-73
2022/12/23 07:44:01;;;;;;;10.73;7.15;;;;;;;8.08;100.00;99602.88;5080851;28;20044;-71
2022/12/23 07:46:27;;;;;;;9.77;6.80;;;;;;;8.17;100.00;99609.50;5080694;28;20051;-70
2022/12/23 07:48:54;;;;;;;8.80;6.63;;;;;;;8.07;100.00;99585.34;5081247;28;20051;-75
2022/12/23 07:51:21;;;;;;;9.80;6.07;;;;;;;8.26;100.00;99605.53;5084305;28;20040;-72
2022/12/23 07:53:49;;;;;;;10.60;6.43;;;;;;;8.15;100.00;99581.50;5071508;28;20043;-71
2022/12/23 07:56:16;;;;;;;12.05;6.50;;;;;;;8.40;100.00;99622.41;5081536;28;20126;-70
2022/12/23 07:58:48;;;;;;;10.25;6.72;;;;;;;8.40;100.00;99635.59;5091149;28;20071;-72
2022/12/23 08:01:15;;;;;;;8.65;6.25;;;;;;;8.36;100.00;99627.91;5076251;28;20062;-69
2022/12/23 08:03:42;;;;;;;9.13;6.57;;;;;;;8.39;100.00;99618.06;5085073;28;20044;-72
2022/12/23 08:06:14;;;;;;;8.45;5.38;;;;;;;8.27;100.00;99594.06;5083400;28;20056;-72
2022/12/23 08:08:43;;;;;;;10.70;5.70;;;;;;;8.36;100.00;99615.56;5085307;28;20142;-71
2022/12/23 08:11:11;;;;;;;8.68;6.05;;;;;;;8.32;100.00;99618.47;5074827;28;20086;-72
2022/12/23 08:13:40;;;;;;;10.30;6.05;;;;;;;8.40;100.00;99619.78;5078324;28;20052;-70
2022/12/23 08:16:08;;;;;;;10.30;6.32;;;;;;;8.48;100.00;99613.28;5083127;28;20043;-73
2022/12/23 08:18:37;;;;;;;10.10;6.55;;;;;;;8.47;100.00;99611.56;5084184;28;20056;-76
2022/12/23 08:21:13;;;;;;;10.23;5.88;;;;;;;8.33;100.00;99584.09;5085374;28;20480;-72
2022/12/23 08:23:42;;;;;;;7.78;5.50;;;;;;;8.48;100.00;99597.44;5078764;28;20044;-72
2022/12/23 08:26:11;;;;;;;9.82;6.07;;;;;;;8.54;100.00;99605.03;5077442;28;20391;-72
2022/12/23 08:28:39;;;;;;;11.73;6.72;;;;;;;8.57;100.00;99605.72;5077629;28;20060;-70
2022/12/23 08:31:07;;;;;;;9.48;6.70;;;;;;;8.41;100.00;99576.63;5078306;28;20480;-72
2022/12/23 08:33:35;;;;;;;12.13;7.18;;;;;;;8.62;100.00;99613.41;5077301;28;20045;-74
2022/12/23 08:36:02;;;;;;;9.45;6.95;;;;;;;8.49;100.00;99589.44;5079664;28;22782;-68
2022/12/23 08:38:28;;;;;;;12.45;7.05;;;;;;;8.60;100.00;99602.94;5076009;28;20449;-72
2022/12/23 08:40:55;;;;;;;11.27;6.85;;;;;;;8.65;100.00;99610.63;5072762;28;20127;-78
2022/12/23 08:43:22;;;;;;;13.75;7.70;;;;;;;8.67;100.00;99609.59;5084521;28;20403;-70
2022/12/23 08:45:48;;;;;;;12.35;8.05;;;;;;;8.68;100.00;99600.75;5081895;28;20481;-70
2022/12/23 08:48:15;;;;;;;11.95;7.72;;;;;;;8.68;100.00;99598.09;5083666;28;20075;-73
2022/12/23 08:50:43;;;;;;;10.23;7.60;;;;;;;8.75;100.00;99603.94;5077385;28;20139;-69
2022/12/23 08:53:11;;;;;;;12.18;7.55;;;;;;;8.77;100.00;99599.41;5075521;28;20048;-71
2022/12/23 08:55:42;;;;;;;10.98;7.43;;;;;;;8.84;100.00;99608.72;5073583;28;20402;-73
2022/12/23 08:58:11;;;;;;;10.38;6.85;;;;;;;8.74;100.00;99597.78;5069747;28;20066;-71
2022/12/23 09:00:38;;;;;;;10.52;6.80;;;;;;;8.87;100.00;99612.97;5071574;28;20423;-70
2022/12/23 09:03:05;;;;;;;8.90;5.75;;;;;;;8.87;100.00;99618.25;5075325;28;20411;-70
2022/12/23 09:05:37;;;;;;;8.35;5.88;;;;;;;8.88;100.00;99625.25;5074767;28;20066;-72
2022/12/23 09:08:03;;;;;;;9.30;5.85;;;;;;;8.93;100.00;99628.53;5076663;28;20481;-72
2022/12/23 09:10:30;;;;;;;6.38;5.53;;;;;;;8.95;100.00;99629.28;5075535;28;20068;-72
2022/12/23 09:12:57;;;;;;;8.20;5.15;;;;;;;9.02;100.00;99628.03;5080699;28;20063;-77
2022/12/23 09:15:23;;;;;;;8.32;5.47;;;;;;;9.04;100.00;99610.31;5079706;28;20087;-70
2022/12/23 09:17:50;;;;;;;7.95;5.78;;;;;;;9.13;100.00;99615.09;5078547;28;20052;-71
2022/12/23 09:20:17;;;;;;;7.47;5.72;;;;;;;9.11;100.00;99633.69;5080985;28;21542;-75
2022/12/23 09:22:43;;;;;;;8.52;5.63;;;;;;;9.00;100.00;99643.09;5073611;28;20572;-76
2022/12/23 09:25:10;;;;;;;9.07;5.55;;;;;;;8.92;100.00;99638.22;5073711;28;20076;-69
2022/12/23 09:27:36;;;;;;;8.02;5.78;;;;;;;9.01;100.00;99623.66;5072874;27;20381;-74
2022/12/23 09:30:04;;;;;;;9.43;5.90;;;;;;;9.08;100.00;99617.16;5072046;28;20500;-72
2022/12/23 09:32:31;;;;;;;9.68;5.40;;;;;;;9.06;100.00;99605.81;5081249;28;20136;-70
2022/12/23 09:34:58;;;;;;;7.60;5.90;;;;;;;9.23;100.00;99626.88;5081571;28;20094;-74
2022/12/23 09:37:25;;;;;;;8.82;5.95;;;;;;;9.26;100.00;99616.16;5076786;28;20037;-69
2022/12/23 09:39:52;;;;;;;9.40;6.85;;;;;;;9.27;100.00;99607.31;5081584;28;20055;-72
2022/12/23 09:42:24;;;;;;;10.10;6.53;;;;;;;9.36;100.00;99596.22;5078895;28;20545;-70
2022/12/23 09:45:06;;;;;;;9.40;7.60;;;;;;;9.39;100.00;99589.94;5074484;28;20048;-72
2022/12/23 09:47:34;;;;;;;14.93;8.30;;;;;;;9.40;100.00;99596.91;5078310;28;20557;-70
2022/12/23 09:50:09;;;;;;;8.55;7.38;;;;;;;9.38;100.00;99604.94;5073282;28;20056;-69
2022/12/23 09:52:43;;;;;;;6.88;5.20;;;;;;;9.24;100.00;99607.47;5081322;28;20047;-69
2022/12/23 09:55:20;;;;;;;7.00;4.38;;;;;;;9.31;100.00;99607.97;5082124;28;20043;-68
2022/12/23 09:57:57;;;;;;;9.50;5.43;;;;;;;9.38;100.00;99604.06;5077528;28;20048;-69
2022/12/23 10:00:25;;;;;;;5.97;4.82;;;;;;;9.30;100.00;99595.69;5068858;28;20136;-70
2022/12/23 10:03:10;;;;;;;8.63;5.53;;;;;;;9.28;100.00;99610.81;5081068;28;20046;-70
2022/12/23 10:06:09;;;;;;;6.78;5.40;;;;;;;9.21;100.00;99612.91;5073734;28;20136;-70
2022/12/23 10:08:44;;;;;;;7.78;5.20;;;;;;;9.21;100.00;99606.78;5080131;28;20131;-70
2022/12/23 10:11:25;;;;;;;7.82;5.65;;;;;;;9.27;100.00;99602.03;5078390;28;20052;-69
2022/12/23 10:14:14;;;;;;;9.23;6.13;;;;;;;9.38;100.00;99582.94;5073967;28;20073;-68
2022/12/23 10:16:45;;;;;;;8.70;6.07;;;;;;;9.30;100.00;99554.28;5077158;28;20084;-69
2022/12/23 10:19:20;;;;;;;10.80;6.13;;;;;;;9.43;100.00;99589.69;5080769;28;20040;-69
2022/12/23 10:21:51;;;;;;;10.13;6.53;;;;;;;9.34;100.00;99594.59;5078510;28;20138;-68
2022/12/23 10:24:17;;;;;;;;;;;;;;;9.25;100.00;99582.75;5081820;28;20101;-69
2022/12/23 10:27:10;;;;;;;10.63;7.38;;;;;;;9.20;100.00;99579.50;5087425;28;19927;-69
2022/12/23 10:29:37;;;;;;;11.27;7.25;;;;;;;9.18;100.00;99562.88;5076533;28;20612;-75
2022/12/23 10:32:15;;;;;;;12.10;7.72;;;;;;;9.23;100.00;99565.28;5077592;28;20484;-69
2022/12/23 10:35:16;;;;;;;11.52;8.15;;;;;;;9.22;100.00;99564.44;5081922;28;20456;-69
2022/12/23 10:37:48;;;;;;;10.60;7.68;;;;;;;9.09;100.00;99539.63;5077037;28;20128;-72
2022/12/23 10:40:33;;;;;;;17.80;8.02;;;;;;;9.20;100.00;99555.72;5087011;28;20052;-68
2022/12/23 10:43:21;;;;;;;13.77;8.32;;;;;;;9.17;100.00;99557.69;5070143;28;20124;-68
2022/12/23 10:46:12;;;;;;;13.07;8.50;;;;;;;9.17;100.00;99545.31;5073121;28;20052;-76
2022/12/23 10:48:59;;;;;;;11.32;8.38;;;;;;;9.16;100.00;99540.97;5078526;28;20048;-69
2022/12/23 10:51:33;;;;;;;14.80;8.82;;;;;;;9.16;100.00;99548.91;5078784;28;20075;-71
2022/12/23 10:54:05;;;;;;;13.48;9.35;;;;;;;9.15;100.00;99561.25;5079665;28;20158;-71
2022/12/23 10:56:32;;;;;;;15.43;9.88;;;;;;;9.13;100.00;99541.13;5071428;28;20059;-70
2022/12/23 10:59:00;;;;;;;11.85;9.02;;;;;;;9.18;100.00;99536.47;5077129;28;20054;-72
2022/12/23 11:01:30;;;;;;;11.60;9.05;;;;;;;9.24;100.00;99530.84;5076630;28;20055;-70
2022/12/23 11:04:06;;;;;;;12.77;9.10;;;;;;;9.29;100.00;99526.16;5077440;28;20056;-74
2022/12/23 11:06:38;;;;;;;14.18;9.70;;;;;;;9.33;100.00;99516.28;5072268;28;20135;-71
2022/12/23 11:09:05;;;;;;;14.00;10.00;;;;;;;9.23;100.00;99502.72;5075773;28;20108;-71
2022/12/23 11:12:11;;;;;;;15.90;9.77;;;;;;;9.33;100.00;99511.00;5068750;28;20132;-71
2022/12/23 11:14:42;;;;;;;13.57;9.25;;;;;;;9.13;100.00;99481.25;5061915;28;20389;-71
2022/12/23 11:17:22;;;;;;;;;;;;;;;9.31;100.00;99504.94;5055087;28;20052;-70
2022/12/23 11:20:14;;;;;;;13.82;8.73;;;;;;;9.32;100.00;99494.28;5067190;28;20244;-71
2022/12/23 11:22:49;;;;;;;17.10;10.05;;;;;;;9.29;100.00;99475.09;5081934;28;20556;-71
2022/12/23 11:25:28;;;;;;;13.82;9.25;;;;;;;9.36;100.00;99490.53;5080854;28;20057;-73
2022/12/23 11:28:03;;;;;;;15.93;9.63;;;;;;;9.35;100.00;99472.97;5083414;28;20048;-72
2022/12/23 11:30:31;;;;;;;14.10;9.18;;;;;;;9.38;100.00;99466.66;5077946;28;20139;-71
2022/12/23 11:32:58;;;;;;;17.73;10.02;;;;;;;9.34;100.00;99434.28;5080057;28;20481;-73
2022/12/23 11:35:25;;;;;;;15.68;11.07;;;;;;;9.50;100.00;99450.97;5080815;28;20054;-72
2022/12/23 11:37:51;;;;;;;13.52;8.82;;;;;;;9.56;100.00;99455.06;5081786;28;20058;-73
2022/12/23 11:40:28;;;;;;;14.02;10.45;;;;;;;9.54;100.00;99440.22;5086563;28;20056;-72
2022/12/23 11:42:58;;;;;;;13.82;9.80;;;;;;;9.60;100.00;99447.81;5074311;28;20059;-72
2022/12/23 11:45:28;;;;;;;17.27;13.55;;;;;;;9.61;100.00;99430.97;5078517;28;20088;-71
2022/12/23 11:47:55;;;;;;;11.80;9.73;;;;;;;9.68;100.00;99430.53;5078273;28;20539;-73
2022/12/23 11:50:25;;;;;;;12.93;9.48;;;;;;;9.76;100.00;99430.94;5076125;28;20497;-73
2022/12/23 11:52:54;;;;;;;13.83;9.57;;;;;;;9.77;100.00;99418.56;5084310;28;20083;-73
2022/12/23 11:55:28;;;;;;;13.43;10.68;;;;;;;9.83;100.00;99413.78;5081227;28;20053;-74
2022/12/23 11:57:55;;;;;;;14.45;11.57;;;;;;;9.68;100.00;99382.13;5070228;28;21793;-73
2022/12/23 12:00:29;;;;;;;13.20;9.55;;;;;;;9.72;100.00;99391.56;5076686;28;20602;-74
2022/12/23 12:02:58;;;;;;;11.50;9.25;;;;;;;9.81;100.00;99401.59;5072556;28;20067;-72
2022/12/23 12:05:58;;;;;;;13.10;9.07;;;;;;;9.84;100.00;99396.13;5077362;28;20047;-72
2022/12/23 12:08:36;;;;;;;13.27;8.88;;;;;;;9.86;100.00;99378.38;5072860;28;20106;-71
2022/12/23 12:11:27;;;;;;;9.82;7.45;;;;;;;9.87;100.00;99377.44;5081306;28;20062;-75
2022/12/23 12:13:58;;;;;;;10.68;7.13;;;;;;;9.88;100.00;99357.97;5066849;28;20053;-73
2022/12/23 12:16:40;;;;;;;8.15;6.30;;;;;;;9.93;100.00;99378.84;5075814;28;20544;-73
2022/12/23 12:19:27;;;;;;;10.63;7.30;;;;;;;9.93;100.00;99370.91;5076617;28;20047;-75